createdAt,value
2022-10-31T00:01:34.828Z,99973.91
2022-10-31T00:04:05.198Z,99958.94
2022-10-31T00:06:33.675Z,99968.34
2022-10-31T00:09:04.400Z,99973.34
2022-10-31T00:11:32.873Z,99961.13
2022-10-31T00:14:01.361Z,99975.41
2022-10-31T00:16:31.196Z,99979.44
2022-10-31T00:19:02.433Z,99979.72
2022-10-31T00:21:33.448Z,99983.00
2022-10-31T00:24:03.146Z,99975.00
2022-10-31T00:26:32.578Z,99975.81
2022-10-31T00:29:04.221Z,99960.84
2022-10-31T00:31:34.989Z,99971.66
2022-10-31T00:34:04.753Z,99979.16
2022-10-31T00:36:34.672Z,99965.28
2022-10-31T00:39:04.451Z,99969.44
2022-10-31T00:41:32.886Z,99968.06
2022-10-31T00:44:01.755Z,99981.66
2022-10-31T00:46:30.395Z,99975.03
2022-10-31T00:48:58.797Z,99980.00
2022-10-31T00:51:28.611Z,99979.44
2022-10-31T00:53:59.010Z,99973.88
2022-10-31T00:56:27.548Z,99935.78
2022-10-31T00:58:56.049Z,99953.38
2022-10-31T01:01:24.643Z,99940.63
2022-10-31T01:03:53.392Z,99941.13
2022-10-31T01:06:21.879Z,99932.94
2022-10-31T01:08:50.600Z,99919.09
2022-10-31T01:11:23.557Z,99907.06
2022-10-31T01:13:53.870Z,99915.47
2022-10-31T01:16:25.000Z,99900.38
2022-10-31T01:18:54.071Z,99900.50
2022-10-31T01:21:24.710Z,99884.84
2022-10-31T01:23:55.126Z,99874.31
2022-10-31T01:26:27.008Z,99892.00
2022-10-31T01:28:57.379Z,99871.50
2022-10-31T01:31:28.272Z,99881.94
2022-10-31T01:33:57.235Z,99881.47
2022-10-31T01:36:27.548Z,99885.91
2022-10-31T01:38:59.017Z,99886.41
2022-10-31T01:41:31.792Z,99870.63
2022-10-31T01:44:02.357Z,99872.81
2022-10-31T01:46:35.213Z,99876.94
2022-10-31T01:49:06.865Z,99882.34
2022-10-31T01:51:38.962Z,99871.25
2022-10-31T01:54:13.164Z,99883.47
2022-10-31T01:56:47.393Z,99882.75
2022-10-31T01:59:20.192Z,99879.41
2022-10-31T02:01:50.064Z,99860.69
2022-10-31T02:04:19.248Z,99868.72
2022-10-31T02:06:53.378Z,99847.53
2022-10-31T02:09:24.526Z,99863.63
2022-10-31T02:11:56.679Z,99866.84
2022-10-31T02:14:27.695Z,99853.94
2022-10-31T02:16:56.487Z,99835.91
2022-10-31T02:19:32.780Z,99835.72
2022-10-31T02:22:07.937Z,99833.09
2022-10-31T02:24:56.582Z,99836.25
2022-10-31T02:27:50.893Z,99837.34
2022-10-31T02:30:23.947Z,99835.22
2022-10-31T02:33:14.315Z,99830.81
2022-10-31T02:35:52.432Z,99816.78
2022-10-31T02:38:39.371Z,99797.59
2022-10-31T02:41:20.080Z,99773.66
2022-10-31T02:44:04.523Z,99803.00
2022-10-31T02:46:41.640Z,99820.81
2022-10-31T02:49:22.332Z,99811.88
2022-10-31T02:51:51.377Z,99802.03
2022-10-31T02:54:22.208Z,99770.41
2022-10-31T02:57:00.012Z,99774.59
2022-10-31T02:59:31.832Z,99772.13
2022-10-31T03:02:27.494Z,99772.19
2022-10-31T03:05:21.772Z,99767.53
2022-10-31T03:07:59.584Z,99736.28
2022-10-31T03:10:37.837Z,99726.44
2022-10-31T03:13:13.475Z,99728.09
2022-10-31T03:15:46.212Z,99711.22
2022-10-31T03:18:19.647Z,99721.63
2022-10-31T03:20:55.651Z,99736.94
2022-10-31T03:23:26.985Z,99724.38
2022-10-31T03:25:56.980Z,99728.28
2022-10-31T03:28:33.111Z,99711.78
2022-10-31T03:31:07.364Z,99702.28
2022-10-31T03:33:41.749Z,99688.16
2022-10-31T03:36:15.148Z,99695.81
2022-10-31T03:38:48.114Z,99712.56
2022-10-31T03:41:23.715Z,99732.47
2022-10-31T03:43:57.703Z,99749.81
2022-10-31T03:46:27.291Z,99770.91
2022-10-31T03:48:59.346Z,99753.88
2022-10-31T03:51:38.373Z,99751.50
2022-10-31T03:54:15.678Z,99758.72
2022-10-31T03:56:52.943Z,99766.09
2022-10-31T03:59:29.014Z,99751.22
2022-10-31T04:02:01.213Z,99746.16
2022-10-31T04:04:30.966Z,99757.22
2022-10-31T04:07:03.869Z,99760.00
2022-10-31T04:09:37.448Z,99788.41
2022-10-31T04:12:09.874Z,99804.66
2022-10-31T04:14:50.343Z,99789.22
2022-10-31T04:17:22.255Z,99777.31
2022-10-31T04:19:50.768Z,99784.38
2022-10-31T04:22:21.936Z,99778.66
2022-10-31T04:24:50.381Z,99785.00
2022-10-31T04:27:19.798Z,99779.34
2022-10-31T04:29:50.770Z,99791.19
2022-10-31T04:32:20.188Z,99776.69
2022-10-31T04:34:48.784Z,99786.09
2022-10-31T04:37:17.248Z,99780.88
2022-10-31T04:39:47.090Z,99760.53
2022-10-31T04:42:38.600Z,99743.72
2022-10-31T04:45:08.902Z,99745.34
2022-10-31T04:47:38.222Z,99751.69
2022-10-31T04:50:08.228Z,99747.94
2022-10-31T04:52:41.530Z,99741.53
2022-10-31T04:55:13.729Z,99734.22
2022-10-31T04:57:52.081Z,99727.06
2022-10-31T05:00:23.619Z,99725.03
2022-10-31T05:03:15.734Z,99727.66
2022-10-31T05:05:44.385Z,99712.59
2022-10-31T05:08:14.955Z,99713.31
2022-10-31T05:10:44.865Z,99702.06
2022-10-31T05:13:13.472Z,99697.91
2022-10-31T05:16:02.249Z,99688.34
2022-10-31T05:18:53.739Z,99680.63
2022-10-31T05:21:40.984Z,99682.69
2022-10-31T05:24:10.449Z,99667.56
2022-10-31T05:26:42.419Z,99672.25
2022-10-31T05:29:11.377Z,99669.16
2022-10-31T05:31:40.436Z,99657.66
2022-10-31T05:34:15.637Z,99652.56
2022-10-31T05:37:02.500Z,99654.44
2022-10-31T05:39:31.073Z,99666.31
2022-10-31T05:42:05.556Z,99670.50
2022-10-31T05:44:34.133Z,99677.13
2022-10-31T05:47:15.267Z,99685.75
2022-10-31T05:50:02.542Z,99670.41
2022-10-31T05:52:37.089Z,99672.63
2022-10-31T05:55:16.096Z,99661.88
2022-10-31T05:58:01.058Z,99668.53
2022-10-31T06:00:30.536Z,99662.03
2022-10-31T06:05:56.315Z,99603.78
2022-10-31T06:08:33.792Z,99587.09
2022-10-31T06:11:07.005Z,99582.66
2022-10-31T06:13:55.532Z,99574.69
2022-10-31T06:16:28.026Z,99575.72
2022-10-31T06:18:59.353Z,99563.13
2022-10-31T06:21:28.278Z,99557.84
2022-10-31T06:23:56.729Z,99575.03
2022-10-31T06:26:39.648Z,99575.34
2022-10-31T06:29:09.525Z,99578.31
2022-10-31T06:32:00.770Z,99563.75
2022-10-31T06:34:30.496Z,99576.31
2022-10-31T06:36:59.678Z,99564.59
2022-10-31T06:39:29.845Z,99572.88
2022-10-31T06:41:59.173Z,99570.03
2022-10-31T06:44:30.453Z,99560.78
2022-10-31T06:47:01.681Z,99568.91
2022-10-31T06:50:09.474Z,99564.44
2022-10-31T06:52:38.339Z,99569.56
2022-10-31T06:55:07.501Z,99573.66
2022-10-31T06:57:36.583Z,99564.78
2022-10-31T07:00:07.764Z,99575.16
2022-10-31T07:02:45.482Z,99572.00
2022-10-31T07:05:13.972Z,99556.47
2022-10-31T07:07:42.555Z,99564.59
2022-10-31T07:12:57.357Z,99584.59
2022-10-31T07:15:28.589Z,99604.44
2022-10-31T07:18:02.487Z,99609.94
2022-10-31T07:20:33.214Z,99626.63
2022-10-31T07:23:02.362Z,99635.69
2022-10-31T07:25:33.234Z,99663.16
2022-10-31T07:28:12.067Z,99642.44
2022-10-31T07:30:42.549Z,99688.44
2022-10-31T07:33:11.045Z,99685.47
2022-10-31T07:35:59.441Z,99676.84
2022-10-31T07:38:31.775Z,99685.13
2022-10-31T07:41:04.836Z,99699.34
2022-10-31T07:43:39.236Z,99721.19
2022-10-31T07:46:12.459Z,99725.81
2022-10-31T07:48:59.505Z,99726.16
2022-10-31T07:51:46.740Z,99737.22
2022-10-31T07:54:15.537Z,99746.47
2022-10-31T07:56:44.381Z,99742.16
2022-10-31T07:59:12.959Z,99771.28
2022-10-31T08:01:42.999Z,99765.53
2022-10-31T08:04:40.065Z,99777.75
2022-10-31T08:07:27.350Z,99785.06
2022-10-31T08:10:01.704Z,99756.44
2022-10-31T08:12:33.359Z,99777.44
2022-10-31T08:15:03.101Z,99773.00
2022-10-31T08:17:36.867Z,99769.22
2022-10-31T08:20:05.982Z,99768.88
2022-10-31T08:22:42.776Z,99777.97
2022-10-31T08:25:12.464Z,99762.28
2022-10-31T08:27:41.326Z,99781.13
2022-10-31T08:30:18.281Z,99784.78
2022-10-31T08:33:06.316Z,99780.63
2022-10-31T08:35:53.108Z,99787.09
2022-10-31T08:38:39.780Z,99790.75
2022-10-31T08:41:11.108Z,99786.78
2022-10-31T08:43:40.026Z,99785.25
2022-10-31T08:46:09.281Z,99787.44
2022-10-31T08:48:39.476Z,99786.75
2022-10-31T08:51:08.772Z,99792.22
2022-10-31T08:53:37.539Z,99801.50
2022-10-31T08:56:24.314Z,99810.59
2022-10-31T08:58:54.783Z,99835.88
2022-10-31T09:01:34.229Z,99827.28
2022-10-31T09:04:04.199Z,99841.66
2022-10-31T09:06:32.672Z,99851.09
2022-10-31T09:09:01.462Z,99853.44
2022-10-31T09:11:31.960Z,99847.78
2022-10-31T09:14:06.634Z,99861.88
2022-10-31T09:16:41.227Z,99871.34
2022-10-31T09:19:18.406Z,99867.06
2022-10-31T09:21:48.624Z,99863.59
2022-10-31T09:24:17.053Z,99859.94
2022-10-31T09:26:45.518Z,99808.78
2022-10-31T09:29:28.052Z,99847.69
2022-10-31T09:32:00.591Z,99855.31
2022-10-31T09:34:35.138Z,99847.81
2022-10-31T09:37:16.598Z,99850.31
2022-10-31T09:39:45.023Z,99849.66
2022-10-31T09:42:49.540Z,99863.91
2022-10-31T09:45:29.176Z,99850.66
2022-10-31T09:48:23.084Z,99858.94
2022-10-31T09:51:16.092Z,99851.66
2022-10-31T09:54:13.067Z,99871.19
2022-10-31T09:56:41.701Z,99874.19
2022-10-31T09:59:26.758Z,99875.16
2022-10-31T10:02:00.236Z,99864.56
2022-10-31T10:04:45.460Z,99874.78
2022-10-31T10:07:31.457Z,99867.16
2022-10-31T10:10:48.477Z,99855.75
2022-10-31T10:13:47.209Z,99848.75
2022-10-31T10:16:26.326Z,99832.50
2022-10-31T10:19:06.541Z,99801.34
2022-10-31T10:21:45.829Z,99789.22
2022-10-31T10:24:25.332Z,99787.13
2022-10-31T10:27:03.972Z,99789.22
2022-10-31T10:29:39.944Z,99790.53
2022-10-31T10:32:16.660Z,99787.47
2022-10-31T10:34:52.968Z,99823.41
2022-10-31T10:37:28.916Z,99831.72
2022-10-31T10:40:09.975Z,99833.84
2022-10-31T10:42:56.697Z,99835.47
2022-10-31T10:45:42.296Z,99849.16
2022-10-31T10:48:17.468Z,99855.06
2022-10-31T10:50:50.524Z,99853.16
2022-10-31T10:53:36.537Z,99862.47
2022-10-31T10:56:18.073Z,99878.09
2022-10-31T10:58:47.211Z,99871.53
2022-10-31T11:01:17.340Z,99872.44
2022-10-31T11:03:45.967Z,99885.94
2022-10-31T11:06:25.999Z,99894.78
2022-10-31T11:08:55.020Z,99892.59
2022-10-31T11:11:32.313Z,99850.03
2022-10-31T11:14:05.320Z,99849.38
2022-10-31T11:16:40.980Z,99841.31
2022-10-31T11:19:17.135Z,99824.28
2022-10-31T11:21:52.591Z,99788.75
2022-10-31T11:24:24.375Z,99796.53
2022-10-31T11:27:04.843Z,99791.31
2022-10-31T11:29:33.270Z,99780.56
2022-10-31T11:32:03.060Z,99771.41
2022-10-31T11:34:34.503Z,99777.31
2022-10-31T11:37:11.452Z,99767.91
2022-10-31T11:39:44.490Z,99770.16
2022-10-31T11:42:15.544Z,99801.56
2022-10-31T11:44:46.653Z,99808.63
2022-10-31T11:47:19.099Z,99819.31
2022-10-31T11:49:50.565Z,99823.44
2022-10-31T11:52:22.976Z,99830.34
2022-10-31T11:54:55.608Z,99832.66
2022-10-31T11:57:30.878Z,99835.97
2022-10-31T12:00:01.235Z,99843.38
2022-10-31T12:02:29.722Z,99847.06
2022-10-31T12:05:05.030Z,99856.13
2022-10-31T12:07:33.763Z,99873.28
2022-10-31T12:10:02.507Z,99873.31
2022-10-31T12:12:52.394Z,99879.78
2022-10-31T12:15:33.291Z,99888.44
2022-10-31T12:18:23.382Z,99884.53
2022-10-31T12:21:05.380Z,99883.81
2022-10-31T12:23:44.455Z,99876.25
2022-10-31T12:26:20.454Z,99903.44
2022-10-31T12:29:14.995Z,99906.19
2022-10-31T12:31:55.129Z,99919.13
2022-10-31T12:34:48.834Z,99899.34
2022-10-31T12:37:33.018Z,99927.78
2022-10-31T12:40:21.398Z,99932.03
2022-10-31T12:43:03.513Z,99936.00
2022-10-31T12:45:56.960Z,99935.44
2022-10-31T12:48:41.300Z,99937.97
2022-10-31T12:51:22.810Z,99935.13
2022-10-31T12:54:09.557Z,99945.81
2022-10-31T12:56:49.958Z,99940.69
2022-10-31T12:59:25.382Z,99930.91
2022-10-31T13:02:00.436Z,99923.28
2022-10-31T13:04:39.423Z,99937.94
2022-10-31T13:07:13.736Z,99934.91
2022-10-31T13:09:48.613Z,99935.59
2022-10-31T13:12:21.153Z,99934.31
2022-10-31T13:14:52.695Z,99932.41
2022-10-31T13:17:28.357Z,99946.97
2022-10-31T13:20:12.168Z,99941.63
2022-10-31T13:22:42.151Z,99944.47
2022-10-31T13:25:16.145Z,99948.00
2022-10-31T13:27:51.566Z,99956.50
2022-10-31T13:30:23.319Z,99954.00
2022-10-31T13:32:59.263Z,99950.81
2022-10-31T13:35:36.593Z,99962.75
2022-10-31T13:38:17.229Z,99954.97
2022-10-31T13:40:56.175Z,99964.78
2022-10-31T13:43:36.315Z,99969.25
2022-10-31T13:46:05.028Z,99960.47
2022-10-31T13:48:42.308Z,99934.00
2022-10-31T13:51:12.843Z,99967.91
2022-10-31T13:53:45.701Z,99959.16
2022-10-31T13:56:20.077Z,99954.53
2022-10-31T13:59:05.772Z,99960.25
2022-10-31T14:01:35.639Z,99961.63
2022-10-31T14:04:14.779Z,99966.13
2022-10-31T14:06:54.713Z,99964.41
2022-10-31T14:09:29.617Z,99969.97
2022-10-31T14:12:00.080Z,99977.75
2022-10-31T14:14:35.662Z,99980.63
2022-10-31T14:17:04.991Z,99974.53
2022-10-31T14:19:34.821Z,99976.22
2022-10-31T14:22:03.318Z,99971.03
2022-10-31T14:24:38.007Z,99968.28
2022-10-31T14:27:35.455Z,99986.47
2022-10-31T14:30:17.917Z,99949.63
2022-10-31T14:32:46.468Z,99973.63
2022-10-31T14:35:21.329Z,99968.41
2022-10-31T14:38:24.181Z,99952.25
2022-10-31T14:41:11.441Z,99985.06
2022-10-31T14:43:53.453Z,99971.09
2022-10-31T14:46:36.132Z,99990.66
2022-10-31T14:49:21.120Z,99987.09
2022-10-31T14:51:53.806Z,99992.50
2022-10-31T14:54:28.617Z,100008.91
2022-10-31T14:57:06.081Z,100017.59
2022-10-31T14:59:40.552Z,100011.06
2022-10-31T15:02:17.635Z,100017.03
2022-10-31T15:04:48.239Z,100024.56
2022-10-31T15:07:24.906Z,100018.31
2022-10-31T15:09:59.097Z,100024.31
2022-10-31T15:12:29.888Z,100033.28
2022-10-31T15:14:59.540Z,100035.59
2022-10-31T15:17:28.380Z,100047.19
2022-10-31T15:19:59.938Z,100043.56
2022-10-31T15:22:33.016Z,100046.06
2022-10-31T15:25:01.430Z,100059.59
2022-10-31T15:27:31.175Z,100050.41
2022-10-31T15:29:59.788Z,100029.22
2022-10-31T15:32:29.919Z,100060.56
2022-10-31T15:34:58.958Z,100056.38
2022-10-31T15:37:29.876Z,100058.16
2022-10-31T15:40:08.101Z,100064.94
2022-10-31T15:42:42.383Z,100069.88
2022-10-31T15:45:20.879Z,100083.13
2022-10-31T15:47:56.163Z,100085.59
2022-10-31T15:50:29.646Z,100079.97
2022-10-31T15:53:01.408Z,100081.25
2022-10-31T15:55:33.455Z,100084.25
2022-10-31T15:58:05.900Z,100095.84
2022-10-31T16:00:36.596Z,100105.16
2022-10-31T16:03:08.302Z,100106.19
2022-10-31T16:05:40.547Z,100105.53
2022-10-31T16:08:27.457Z,100112.00
2022-10-31T16:10:58.489Z,100119.47
2022-10-31T16:13:31.278Z,100115.00
2022-10-31T16:16:33.472Z,100118.31
2022-10-31T16:18:53.140Z,100112.19
2022-10-31T16:21:27.666Z,100110.88
2022-10-31T16:24:05.794Z,100134.44
2022-10-31T16:26:35.693Z,100137.72
2022-10-31T16:29:05.645Z,100138.69
2022-10-31T16:31:40.091Z,100139.28
2022-10-31T16:34:16.465Z,100150.53
2022-10-31T16:36:45.218Z,100153.09
2022-10-31T16:39:15.672Z,100156.09
2022-10-31T16:41:45.433Z,100158.78
2022-10-31T16:44:20.978Z,100170.47
2022-10-31T16:46:49.571Z,100169.97
2022-10-31T16:49:19.797Z,100178.53
2022-10-31T16:51:48.233Z,100172.75
2022-10-31T16:54:18.238Z,100182.81
2022-10-31T16:56:46.676Z,100185.69
2022-10-31T16:59:16.491Z,100191.84
2022-10-31T17:01:49.028Z,100199.34
2022-10-31T17:04:17.649Z,100202.13
2022-10-31T17:06:46.229Z,100200.91
2022-10-31T17:09:14.701Z,100204.84
2022-10-31T17:11:49.651Z,100209.47
2022-10-31T17:14:18.762Z,100214.56
2022-10-31T17:16:47.253Z,100212.00
2022-10-31T17:19:16.016Z,100217.03
2022-10-31T17:21:44.671Z,100232.66
2022-10-31T17:24:16.008Z,100244.09
2022-10-31T17:26:47.285Z,100253.56
2022-10-31T17:29:15.692Z,100255.28
2022-10-31T17:31:44.229Z,100274.03
2022-10-31T17:34:12.676Z,100271.53
2022-10-31T17:36:41.155Z,100294.16
2022-10-31T17:39:10.956Z,100293.34
2022-10-31T17:41:39.422Z,100303.75
2022-10-31T17:44:12.060Z,100303.34
2022-10-31T17:46:40.609Z,100323.88
2022-10-31T17:49:09.369Z,100333.03
2022-10-31T17:51:37.824Z,100346.03
2022-10-31T17:54:08.954Z,100346.72
2022-10-31T17:56:37.443Z,100348.81
2022-10-31T18:01:41.033Z,100381.13
2022-10-31T18:04:09.531Z,100393.63
2022-10-31T18:06:37.989Z,100408.19
2022-10-31T18:09:07.119Z,100401.81
2022-10-31T18:11:35.619Z,100403.94
2022-10-31T18:14:04.604Z,100409.94
2022-10-31T18:16:33.116Z,100422.41
2022-10-31T18:19:03.078Z,100440.72
2022-10-31T18:21:34.267Z,100445.56
2022-10-31T18:24:03.414Z,100449.03
2022-10-31T18:26:31.872Z,100459.56
2022-10-31T18:29:00.343Z,100463.53
2022-10-31T18:31:28.882Z,100465.84
2022-10-31T18:33:58.362Z,100464.72
2022-10-31T18:36:28.315Z,100467.81
2022-10-31T18:38:56.726Z,100484.63
2022-10-31T18:41:25.491Z,100490.41
2022-10-31T18:43:56.362Z,100492.19
2022-10-31T18:46:24.787Z,100499.53
2022-10-31T18:48:53.475Z,100503.16
2022-10-31T18:51:21.911Z,100520.91
2022-10-31T18:53:56.164Z,100525.06
2022-10-31T18:56:24.984Z,100527.63
2022-10-31T18:58:53.553Z,100539.47
2022-10-31T19:01:23.195Z,100549.41
2022-10-31T19:03:56.097Z,100548.44
2022-10-31T19:06:25.129Z,100548.19
2022-10-31T19:09:00.189Z,100535.53
2022-10-31T19:11:29.258Z,100556.81
2022-10-31T19:13:58.620Z,100558.47
2022-10-31T19:16:28.157Z,100553.69
2022-10-31T19:18:57.367Z,100565.88
2022-10-31T19:21:25.976Z,100566.84
2022-10-31T19:23:56.549Z,100563.97
2022-10-31T19:26:27.263Z,100573.53
2022-10-31T19:28:57.163Z,100574.50
2022-10-31T19:31:26.078Z,100565.13
2022-10-31T19:33:54.541Z,100586.75
2022-10-31T19:36:24.077Z,100576.63
2022-10-31T19:38:54.171Z,100589.66
2022-10-31T19:41:24.911Z,100588.59
2022-10-31T19:43:55.750Z,100583.06
2022-10-31T19:46:48.233Z,100578.97
2022-10-31T19:49:13.740Z,100590.56
2022-10-31T19:51:42.265Z,100604.56
2022-10-31T19:54:11.726Z,100612.59
2022-10-31T19:56:40.165Z,100616.28
2022-10-31T19:59:10.235Z,100618.78
2022-10-31T20:01:38.766Z,100614.78
2022-10-31T20:04:07.320Z,100624.59
2022-10-31T20:06:38.144Z,100611.75
2022-10-31T20:09:09.714Z,100607.50
2022-10-31T20:11:39.412Z,100615.94
2022-10-31T20:14:11.556Z,100611.91
2022-10-31T20:16:40.304Z,100610.22
2022-10-31T20:19:09.334Z,100613.09
2022-10-31T20:21:40.676Z,100618.66
2022-10-31T20:24:11.431Z,100626.13
2022-10-31T20:26:40.851Z,100640.06
2022-10-31T20:29:15.966Z,100617.56
2022-10-31T20:31:46.209Z,100618.19
2022-10-31T20:34:15.136Z,100640.44
2022-10-31T20:36:43.547Z,100643.50
2022-10-31T20:39:12.096Z,100651.34
2022-10-31T20:41:40.567Z,100662.44
2022-10-31T20:44:10.426Z,100663.41
2022-10-31T20:46:38.985Z,100672.75
2022-10-31T20:49:07.407Z,100668.19
2022-10-31T20:51:35.900Z,100668.09
2022-10-31T20:54:04.377Z,100669.16
2022-10-31T20:56:32.829Z,100674.19
2022-10-31T20:59:01.510Z,100672.75
2022-10-31T21:01:33.328Z,100680.69
2022-10-31T21:04:01.830Z,100689.13
2022-10-31T21:06:31.027Z,100689.97
2022-10-31T21:08:59.768Z,100684.09
2022-10-31T21:11:29.477Z,100686.81
2022-10-31T21:13:59.544Z,100682.22
2022-10-31T21:16:29.641Z,100688.16
2022-10-31T21:19:01.870Z,100682.50
2022-10-31T21:21:32.865Z,100683.91
2022-10-31T21:24:04.143Z,100693.31
2022-10-31T21:26:34.720Z,100698.13
2022-10-31T21:29:04.577Z,100703.69
2022-10-31T21:31:33.666Z,100679.94
2022-10-31T21:34:03.819Z,100707.56
2022-10-31T21:36:32.290Z,100708.50
2022-10-31T21:39:00.808Z,100700.41
2022-10-31T21:41:29.510Z,100704.91
2022-10-31T21:43:58.109Z,100711.84
2022-10-31T21:46:30.275Z,100704.38
2022-10-31T21:48:59.454Z,100703.13
2022-10-31T21:51:31.418Z,100691.81
2022-10-31T21:54:17.486Z,100710.06
2022-10-31T21:56:47.026Z,100710.91
2022-10-31T21:59:15.446Z,100711.66
2022-10-31T22:01:44.012Z,100715.22
2022-10-31T22:04:12.639Z,100720.78
2022-10-31T22:06:42.510Z,100725.19
2022-10-31T22:09:14.707Z,100720.13
2022-10-31T22:11:44.133Z,100721.19
2022-10-31T22:14:13.753Z,100722.75
2022-10-31T22:16:42.739Z,100721.63
2022-10-31T22:19:13.104Z,100726.66
2022-10-31T22:21:44.740Z,100702.31
2022-10-31T22:24:13.769Z,100737.34
2022-10-31T22:26:42.232Z,100736.50
2022-10-31T22:29:13.753Z,100729.91
2022-10-31T22:31:43.974Z,100744.13
2022-10-31T22:34:13.205Z,100747.09
2022-10-31T22:36:44.041Z,100724.66
2022-10-31T22:39:14.121Z,100745.22
2022-10-31T22:41:42.683Z,100752.25
2022-10-31T22:44:11.244Z,100761.59
2022-10-31T22:46:40.849Z,100737.03
2022-10-31T22:49:11.967Z,100752.31
2022-10-31T22:51:43.760Z,100743.81
2022-10-31T22:54:15.167Z,100758.41
2022-10-31T22:56:43.976Z,100759.56
2022-10-31T22:59:13.826Z,100753.66
2022-10-31T23:01:42.485Z,100745.06
2022-10-31T23:06:46.555Z,100764.66
2022-10-31T23:09:16.870Z,100765.47
2022-10-31T23:11:46.037Z,100763.97
2022-10-31T23:14:19.737Z,100764.50
2022-10-31T23:16:49.739Z,100758.41
2022-10-31T23:19:22.164Z,100763.56
2022-10-31T23:21:57.109Z,100774.69
2022-10-31T23:24:33.033Z,100770.94
2022-10-31T23:27:08.918Z,100763.88
2022-10-31T23:29:40.863Z,100770.59
2022-10-31T23:32:11.424Z,100778.22
2022-10-31T23:34:40.367Z,100782.31
2022-10-31T23:37:10.480Z,100776.97
2022-10-31T23:39:38.993Z,100778.69
2022-10-31T23:42:07.762Z,100777.47
2022-10-31T23:44:36.530Z,100778.59
2022-10-31T23:47:05.205Z,100776.88
2022-10-31T23:49:34.056Z,100774.28
2022-10-31T23:52:03.697Z,100771.94
2022-10-31T23:54:34.121Z,100779.00
2022-10-31T23:57:02.823Z,100770.13
2022-10-31T23:59:31.508Z,100783.69
